createdAt,value
2022-08-11T00:02:52.833Z,1.70
2022-08-11T00:08:26.881Z,1.60
2022-08-11T00:13:50.580Z,1.65
2022-08-11T00:19:20.202Z,1.95
2022-08-11T00:25:13.273Z,1.70
2022-08-11T00:30:40.387Z,1.88
2022-08-11T00:36:03.539Z,1.85
2022-08-11T00:41:59.695Z,2.10
2022-08-11T00:47:38.316Z,1.85
2022-08-11T00:53:26.324Z,2.17
2022-08-11T00:59:34.401Z,2.22
2022-08-11T01:05:28.658Z,1.80
2022-08-11T01:11:03.059Z,1.88
2022-08-11T01:16:59.698Z,1.95
2022-08-11T01:22:37.057Z,2.38
2022-08-11T01:28:11.573Z,1.80
2022-08-11T01:34:10.976Z,2.00
2022-08-11T01:39:39.280Z,2.00
2022-08-11T01:45:16.596Z,2.30
2022-08-11T01:51:03.618Z,2.20
2022-08-11T01:56:38.046Z,2.10
2022-08-11T02:02:43.538Z,2.13
2022-08-11T02:08:52.086Z,2.17
2022-08-11T02:14:29.701Z,2.00
2022-08-11T02:20:20.422Z,2.30
2022-08-11T02:26:09.688Z,2.80
2022-08-11T02:32:25.168Z,2.53
2022-08-11T02:37:50.610Z,2.50
2022-08-11T02:43:51.173Z,2.33
2022-08-11T02:50:02.715Z,2.53
2022-08-11T02:55:57.597Z,2.43
2022-08-11T03:01:38.908Z,2.07
2022-08-11T03:07:28.755Z,2.50
2022-08-11T03:13:32.399Z,2.70
2022-08-11T03:19:13.937Z,2.57
2022-08-11T03:24:46.607Z,2.70
2022-08-11T03:30:17.771Z,2.50
2022-08-11T03:36:02.447Z,2.70
2022-08-11T03:41:59.287Z,2.60
2022-08-11T03:47:54.836Z,2.63
2022-08-11T03:53:35.962Z,2.73
2022-08-11T03:59:23.103Z,3.00
2022-08-11T04:05:21.154Z,2.93
2022-08-11T04:11:01.639Z,3.27
2022-08-11T04:17:08.887Z,3.00
2022-08-11T04:22:54.271Z,3.03
2022-08-11T04:29:03.551Z,3.40
2022-08-11T04:35:09.518Z,3.13
2022-08-11T04:41:04.064Z,2.90
2022-08-11T04:46:38.264Z,3.07
2022-08-11T04:52:56.426Z,3.33
2022-08-11T04:59:04.960Z,3.87
2022-08-11T05:05:23.522Z,3.33
2022-08-11T05:10:54.058Z,3.67
2022-08-11T05:16:39.414Z,3.70
2022-08-11T05:22:24.434Z,4.07
2022-08-11T05:28:30.398Z,4.10
2022-08-11T05:34:18.318Z,3.60
2022-08-11T05:40:05.746Z,3.40
2022-08-11T05:45:58.192Z,3.40
2022-08-11T05:51:55.237Z,3.93
2022-08-11T05:57:48.546Z,4.00
2022-08-11T06:03:22.155Z,3.80
2022-08-11T06:08:44.548Z,3.47
2022-08-11T06:14:08.812Z,3.60
2022-08-11T06:19:36.754Z,3.88
2022-08-11T06:25:01.612Z,3.88
2022-08-11T06:30:42.751Z,3.63
2022-08-11T06:36:13.908Z,3.45
2022-08-11T06:41:54.157Z,3.80
2022-08-11T06:47:23.208Z,3.85
2022-08-11T06:52:47.898Z,4.30
2022-08-11T06:58:37.614Z,3.92
2022-08-11T07:04:08.189Z,3.63
2022-08-11T07:10:02.308Z,3.45
2022-08-11T07:16:10.597Z,3.67
2022-08-11T07:22:03.122Z,3.75
2022-08-11T07:27:50.536Z,3.25
2022-08-11T07:34:06.845Z,3.47
2022-08-11T07:39:02.863Z,3.00
2022-08-11T07:44:34.314Z,3.63
2022-08-11T07:50:15.967Z,3.20
2022-08-11T07:55:50.241Z,3.10
2022-08-11T08:01:39.806Z,3.10
2022-08-11T08:07:23.200Z,3.13
2022-08-11T08:13:05.016Z,3.30
2022-08-11T08:18:29.140Z,2.45
2022-08-11T08:23:53.846Z,2.55
2022-08-11T08:29:39.133Z,2.75
2022-08-11T08:35:03.337Z,3.20
2022-08-11T08:40:26.391Z,2.78
2022-08-11T08:45:48.707Z,2.53
2022-08-11T08:52:02.458Z,2.40
2022-08-11T08:57:14.880Z,2.58
2022-08-11T09:02:37.951Z,2.60
2022-08-11T09:08:00.794Z,2.80
2022-08-11T09:13:23.517Z,2.55
2022-08-11T09:18:46.167Z,2.72
2022-08-11T09:24:27.366Z,2.60
2022-08-11T09:29:51.110Z,2.75
2022-08-11T09:35:14.366Z,2.40
2022-08-11T09:40:37.402Z,2.75
2022-08-11T09:46:01.213Z,2.80
2022-08-11T09:51:24.282Z,2.47
2022-08-11T09:57:05.660Z,2.40
2022-08-11T10:02:30.335Z,2.65
2022-08-11T10:07:54.176Z,2.60
2022-08-11T10:14:10.038Z,3.00
2022-08-11T10:19:05.576Z,2.63
2022-08-11T10:24:46.573Z,2.45
2022-08-11T10:30:28.923Z,2.65
2022-08-11T10:35:51.509Z,2.50
2022-08-11T10:41:33.198Z,2.35
2022-08-11T10:47:14.630Z,2.10
2022-08-11T10:52:56.666Z,2.03
2022-08-11T10:58:38.182Z,2.38
2022-08-11T11:04:05.099Z,2.45
2022-08-11T11:09:39.759Z,2.25
2022-08-11T11:15:23.194Z,1.98
2022-08-11T11:20:52.368Z,1.77
2022-08-11T11:26:27.712Z,2.00
2022-08-11T11:31:56.818Z,1.90
2022-08-11T11:37:19.815Z,2.10
2022-08-11T11:42:45.535Z,1.65
2022-08-11T11:48:08.801Z,1.50
2022-08-11T11:53:31.698Z,2.17
2022-08-11T11:59:14.644Z,1.60
2022-08-11T12:04:38.104Z,1.80
2022-08-11T12:10:01.470Z,1.50
2022-08-11T12:16:04.357Z,1.60
2022-08-11T12:21:08.201Z,1.52
2022-08-11T12:27:02.752Z,1.30
2022-08-11T12:32:36.067Z,1.75
2022-08-11T12:38:09.386Z,1.20
2022-08-11T12:43:57.022Z,1.50
2022-08-11T12:49:45.192Z,1.40
2022-08-11T12:55:14.073Z,1.45
2022-08-11T13:00:55.113Z,1.55
2022-08-11T13:06:19.473Z,1.15
2022-08-11T13:12:00.978Z,1.13
2022-08-11T13:17:43.691Z,1.50
2022-08-11T13:23:06.643Z,1.52
2022-08-11T13:28:29.787Z,1.10
2022-08-11T13:33:52.903Z,1.20
2022-08-11T13:39:16.280Z,1.13
2022-08-11T13:44:39.167Z,0.93
2022-08-11T13:50:02.547Z,1.48
2022-08-11T13:55:50.912Z,1.27
2022-08-11T14:01:11.283Z,1.17
2022-08-11T14:06:54.463Z,1.27
2022-08-11T14:12:42.191Z,1.10
2022-08-11T14:18:08.408Z,1.10
2022-08-11T14:23:46.687Z,1.10
2022-08-11T14:29:17.931Z,1.08
2022-08-11T14:34:43.110Z,0.88
2022-08-11T14:40:26.205Z,1.02
2022-08-11T14:46:15.870Z,1.10
2022-08-11T14:51:40.895Z,0.90
2022-08-11T14:57:05.461Z,0.90
2022-08-11T15:02:47.859Z,0.88
2022-08-11T15:08:13.166Z,1.00
2022-08-11T15:13:36.627Z,0.90
2022-08-11T15:18:59.271Z,0.90
2022-08-11T15:24:24.195Z,1.00
2022-08-11T15:30:32.023Z,0.93
2022-08-11T15:36:15.735Z,1.25
2022-08-11T15:42:21.282Z,0.93
2022-08-11T15:48:02.486Z,1.10
2022-08-11T15:53:39.277Z,1.10
2022-08-11T15:59:42.581Z,1.40
2022-08-11T16:05:08.723Z,1.13
2022-08-11T16:10:32.951Z,1.10
2022-08-11T16:16:15.987Z,1.10
2022-08-11T16:21:40.392Z,1.02
2022-08-11T16:27:13.641Z,1.35
2022-08-11T16:32:40.491Z,1.08
2022-08-11T16:38:24.392Z,1.13
2022-08-11T16:44:08.162Z,1.30
2022-08-11T16:49:34.892Z,1.45
2022-08-11T16:54:57.623Z,1.30
2022-08-11T17:00:20.213Z,1.20
2022-08-11T17:06:06.119Z,1.00
2022-08-11T17:11:51.777Z,2.20
2022-08-11T17:17:23.830Z,1.20
2022-08-11T17:23:05.545Z,1.25
2022-08-11T17:28:29.797Z,2.00
2022-08-11T17:34:13.002Z,2.30
2022-08-11T17:39:36.043Z,1.98
2022-08-11T17:45:18.134Z,2.03
2022-08-11T17:50:44.483Z,1.75
2022-08-11T17:56:27.362Z,2.40
2022-08-11T18:01:51.363Z,3.85
2022-08-11T18:07:42.028Z,4.82
2022-08-11T18:13:25.415Z,2.72
2022-08-11T18:19:06.281Z,3.05
2022-08-11T18:24:51.882Z,2.10
2022-08-11T18:30:33.113Z,2.90
2022-08-11T18:36:18.327Z,2.17
2022-08-11T18:42:02.999Z,2.40
2022-08-11T18:47:46.584Z,4.43
2022-08-11T18:53:33.077Z,4.30
2022-08-11T18:59:15.872Z,2.72
2022-08-11T19:04:58.226Z,3.20
2022-08-11T19:10:39.899Z,2.53
2022-08-11T19:16:23.837Z,2.03
2022-08-11T19:22:06.146Z,2.17
2022-08-11T19:27:48.516Z,2.35
2022-08-11T19:34:01.623Z,2.72
2022-08-11T19:39:33.171Z,2.13
2022-08-11T19:45:14.819Z,2.08
2022-08-11T19:50:59.423Z,1.92
2022-08-11T19:56:40.935Z,2.00
2022-08-11T20:02:21.834Z,2.13
2022-08-11T20:08:05.113Z,2.03
2022-08-11T20:13:47.860Z,2.42
2022-08-11T20:19:55.965Z,2.17
2022-08-11T20:25:36.958Z,2.00
2022-08-11T20:31:18.355Z,2.05
2022-08-11T20:37:00.971Z,2.15
2022-08-11T20:42:44.203Z,2.30
2022-08-11T20:48:27.605Z,2.10
2022-08-11T20:54:09.740Z,1.98
2022-08-11T21:06:08.113Z,1.85
2022-08-11T21:11:54.106Z,2.05
2022-08-11T21:17:44.835Z,2.20
2022-08-11T21:23:43.147Z,2.10
2022-08-11T21:29:26.155Z,2.10
2022-08-11T21:35:08.596Z,1.75
2022-08-11T21:40:51.419Z,2.05
2022-08-11T21:46:36.327Z,2.08
2022-08-11T21:52:17.763Z,2.13
2022-08-11T21:57:59.680Z,2.15
2022-08-11T22:03:50.317Z,2.35
2022-08-11T22:09:32.236Z,2.03
2022-08-11T22:15:13.635Z,1.83
2022-08-11T22:20:56.196Z,2.13
2022-08-11T22:26:41.190Z,2.13
2022-08-11T22:32:24.616Z,2.30
2022-08-11T22:38:06.542Z,2.05
2022-08-11T22:43:47.855Z,2.20
2022-08-11T22:49:30.734Z,2.13
2022-08-11T22:55:32.667Z,2.20
2022-08-11T23:01:14.504Z,2.40
2022-08-11T23:06:56.944Z,2.33
2022-08-11T23:12:38.820Z,2.28
2022-08-11T23:18:20.754Z,2.58
2022-08-11T23:24:02.555Z,2.28
2022-08-11T23:29:45.348Z,2.03
2022-08-11T23:35:40.039Z,2.38
2022-08-11T23:41:28.892Z,2.30
2022-08-11T23:47:13.755Z,2.20
2022-08-11T23:52:55.183Z,2.75
2022-08-11T23:58:36.271Z,2.20
